• Join FlightAware (Why Join?)
  • Login
  • US Flag 
10:13AM EDT


 

Airport Tracker/Info


-or-


 

Live Flight TrackerFlight Track Log ✈ FDX1488 ✈ 08-May-2013 ✈ KMEM - KBHM

Flight Track Log - Related Links

Times and Time Zones

All times are in EDT time to prevent confusion due to time zone crossing. See the FDX1488 flight status page for this flight to view local times or setup timezone preferences in your user account.

Time Position Orientation Groundspeed Altitude Reporting Facility
EDT Latitude Longitude Course Direction KTS MPH feet Rate Location/Type
05:22AM 35.0333 -89.9667 180° South 174 200 1,300  Level KMEM
05:23AM 34.9667 -89.9667 180° South 223 257 3,600 2,580 Climbing KMEM
05:24AM 34.9167 -89.9000 132° Southeast 292 336 6,800 2,640 Climbing KMEM
05:26AM 34.8619 -89.7369 112° Southeast 299 344 11,400 2,400 Climbing Memphis Center
05:27AM 34.8214 -89.6033 110° East 349 402 13,700 2,400 Climbing Memphis Center
05:28AM 34.7725 -89.4772 115° Southeast 398 458 16,200 2,280 Climbing Memphis Center
05:29AM 34.7258 -89.3617 116° Southeast 411 473 18,300 2,220 Climbing Memphis Center
05:30AM 34.6706 -89.2308 117° Southeast 422 486 20,700 2,100 Climbing Memphis Center
05:31AM 34.6128 -89.0978 118° Southeast 438 504 22,500 1,140 Climbing Memphis Center
05:32AM 34.5528 -88.9575 117° Southeast 452 520 23,000 240 Climbing Memphis Center
05:33AM 34.4886 -88.8100 118° Southeast 453 521 23,000  Level Memphis Center
05:34AM 34.4306 -88.6725 117° Southeast 448 516 23,000  Level Memphis Center
05:35AM 34.3700 -88.5353 118° Southeast 448 516 23,000  Level Memphis Center
05:36AM 34.3117 -88.3983 117° Southeast 448 516 23,000  Level Memphis Center
05:37AM 34.2511 -88.2639 119° Southeast 448 516 23,000  Level Memphis Center
05:38AM 34.1942 -88.1172 115° Southeast 463 533 23,000 -660 Level Memphis Center
05:39AM 34.1006 -87.9197 120° Southeast 461 531 21,300 -1,500 Descending Atlanta Center
05:40AM 34.0633 -87.8378 119° Southeast 461 531 19,800 -3,240 Descending Atlanta Center
05:40AM 34.0342 -87.7661 116° Southeast 450 518 18,100 -2,700 Descending Atlanta Center
05:41AM 34.0067 -87.7075 119° Southeast 450 518 17,100 -2,760 Descending Atlanta Center
05:41AM 33.9736 -87.6283 117° Southeast 430 495 15,300 -2,700 Descending Atlanta Center
05:42AM 33.9519 -87.5797 118° Southeast 445 512 14,400 -2,580 Descending Atlanta Center
05:42AM 33.9264 -87.5261 120° Southeast 417 480 13,000 -2,700 Descending Atlanta Center
05:43AM 33.8992 -87.4600 116° Southeast 425 489 11,700 -1,980 Descending Atlanta Center
05:43AM 33.8694 -87.3989 120° Southeast 404 465 11,000 -720 Descending Atlanta Center
05:44AM 33.8439 -87.3453 120° Southeast 409 471 11,000 -540 Level Atlanta Center
05:44AM 33.8014 -87.2936 135° Southeast 389 448 10,500 -600 Descending Atlanta Center
05:45AM 33.7692 -87.2525 133° Southeast 394 453 10,400 -240 Descending Atlanta Center
05:45AM 33.7386 -87.2214 140° Southeast 323 372 10,300 -600 Descending Atlanta Center
05:46AM 33.7061 -87.1803 134° Southeast 353 406 9,800 -1,620 Descending Atlanta Center
05:46AM 33.6797 -87.1517 138° Southeast 290 334 8,700 -2,340 Descending Atlanta Center
05:47AM 33.6472 -87.1156 137° Southeast 321 369 7,500 -2,400 Descending Atlanta Center
05:47AM 33.6189 -87.0872 140° Southeast 290 334 6,300 -2,400 Descending Atlanta Center
05:48AM 33.5883 -87.0511 135° Southeast 296 341 5,100 -2,460 Descending Atlanta Center
05:48AM 33.5619 -87.0228 138° Southeast 280 322 3,800 -1,680 Descending Atlanta Center
05:49AM 33.5111 -86.9661 137° Southeast 241 277 2,800 -600 Descending Atlanta Center
05:50AM 33.4769 -86.9128 128° Southeast 193 222 2,600 -240 Descending Atlanta Center
05:51AM 33.5008 -86.8639 60° Northeast 147 169 2,400 -540 Descending Atlanta Center
05:52AM 33.5250 -86.8197 57° Northeast 146 168 1,600 -840 Descending Atlanta Center
05:53AM 33.5486 -86.7831 52° Northeast 140 161 800 -840 Descending Atlanta Center
05:55AM 33.5500 -86.7500 73° East  Level FlightAware Approximate